createdAt,value
2023-02-19T00:00:39.928Z,6.13
2023-02-19T00:05:45.973Z,6.47
2023-02-19T00:10:41.234Z,5.95
2023-02-19T00:15:35.133Z,6.15
2023-02-19T00:20:33.337Z,6.97
2023-02-19T00:25:54.332Z,6.97
2023-02-19T00:30:54.417Z,6.85
2023-02-19T00:35:52.411Z,6.50
2023-02-19T00:41:03.814Z,6.05
2023-02-19T00:46:02.660Z,6.78
2023-02-19T00:51:05.613Z,5.93
2023-02-19T00:56:19.079Z,5.70
2023-02-19T01:01:29.085Z,5.97
2023-02-19T01:06:25.603Z,5.47
2023-02-19T01:11:26.922Z,5.72
2023-02-19T01:16:44.876Z,5.18
2023-02-19T01:21:44.033Z,5.93
2023-02-19T01:26:42.262Z,6.50
2023-02-19T01:31:45.479Z,5.93
2023-02-19T01:36:39.241Z,7.07
2023-02-19T01:41:40.387Z,7.43
2023-02-19T01:46:57.723Z,7.87
2023-02-19T01:52:00.559Z,8.63
2023-02-19T01:56:57.359Z,8.77
2023-02-19T02:01:53.956Z,7.35
2023-02-19T02:06:53.239Z,8.02
2023-02-19T02:11:54.097Z,8.50
2023-02-19T02:16:59.052Z,9.35
2023-02-19T02:22:15.860Z,8.15
2023-02-19T02:27:29.629Z,8.05
2023-02-19T02:32:28.552Z,7.13
2023-02-19T02:37:29.800Z,7.30
2023-02-19T02:42:29.442Z,6.93
2023-02-19T02:47:56.083Z,7.53
2023-02-19T02:53:10.863Z,7.43
2023-02-19T02:58:07.860Z,7.18
2023-02-19T03:03:07.526Z,7.97
2023-02-19T03:08:08.104Z,10.13
2023-02-19T03:18:32.884Z,10.15
2023-02-19T03:23:51.555Z,8.95
2023-02-19T03:29:04.349Z,8.85
2023-02-19T03:34:06.579Z,10.02
2023-02-19T03:39:15.189Z,9.80
2023-02-19T03:44:15.921Z,10.05
2023-02-19T03:49:23.868Z,9.98
2023-02-19T03:54:30.742Z,8.95
2023-02-19T03:59:38.223Z,9.13
2023-02-19T04:04:40.917Z,10.40
2023-02-19T04:09:39.962Z,9.60
2023-02-19T04:15:00.011Z,9.75
2023-02-19T04:20:45.661Z,8.60
2023-02-19T04:25:45.905Z,9.55
2023-02-19T04:30:42.081Z,10.55
2023-02-19T04:35:41.880Z,9.73
2023-02-19T04:46:52.406Z,9.55
2023-02-19T04:51:57.322Z,10.93
2023-02-19T04:56:52.500Z,10.90
2023-02-19T05:02:08.883Z,11.00
2023-02-19T05:07:04.746Z,11.25
2023-02-19T05:11:58.085Z,10.68
2023-02-19T05:16:58.278Z,10.68
2023-02-19T05:21:55.228Z,10.45
2023-02-19T05:26:52.881Z,10.02
2023-02-19T05:31:46.412Z,11.10
2023-02-19T05:36:40.696Z,10.85
2023-02-19T05:41:45.232Z,10.82
2023-02-19T05:46:55.917Z,11.07
2023-02-19T05:52:01.215Z,10.60
2023-02-19T05:56:54.963Z,10.68
2023-02-19T06:01:56.527Z,12.10
2023-02-19T06:06:52.313Z,12.20
2023-02-19T06:11:55.113Z,11.80
2023-02-19T06:21:43.194Z,11.18
2023-02-19T06:26:39.929Z,12.32
2023-02-19T06:31:35.381Z,11.45
2023-02-19T06:36:39.636Z,12.25
2023-02-19T06:41:42.088Z,10.93
2023-02-19T06:46:35.743Z,10.82
2023-02-19T06:51:30.390Z,11.93
2023-02-19T06:56:26.964Z,12.52
2023-02-19T07:01:21.872Z,12.38
2023-02-19T07:06:14.922Z,11.82
2023-02-19T07:11:09.874Z,12.55
2023-02-19T07:16:05.633Z,13.15
2023-02-19T07:21:04.052Z,13.70
2023-02-19T07:25:57.247Z,13.23
2023-02-19T07:30:51.796Z,13.23
2023-02-19T07:35:47.381Z,17.70
2023-02-19T07:40:41.114Z,14.52
2023-02-19T07:45:34.342Z,14.88
2023-02-19T07:50:28.792Z,13.93
2023-02-19T07:55:21.853Z,16.42
2023-02-19T08:00:15.771Z,17.58
2023-02-19T08:05:10.848Z,15.15
2023-02-19T08:10:23.775Z,15.32
2023-02-19T08:15:16.953Z,16.23
2023-02-19T08:20:11.509Z,15.45
2023-02-19T08:25:06.463Z,15.27
2023-02-19T08:29:59.831Z,13.98
2023-02-19T08:34:53.070Z,14.13
2023-02-19T08:39:49.140Z,14.85
2023-02-19T08:44:43.622Z,14.88
2023-02-19T08:49:36.817Z,14.40
2023-02-19T08:54:30.083Z,14.43
2023-02-19T08:59:23.890Z,13.43
2023-02-19T09:04:18.542Z,14.45
2023-02-19T09:09:11.979Z,13.82
2023-02-19T09:14:07.620Z,12.77
2023-02-19T09:19:00.776Z,13.30
2023-02-19T09:23:55.378Z,12.95
2023-02-19T09:28:48.583Z,13.32
2023-02-19T09:33:45.672Z,12.15
2023-02-19T09:38:40.003Z,11.60
2023-02-19T09:43:35.362Z,11.25
2023-02-19T09:48:28.560Z,12.68
2023-02-19T09:53:25.115Z,10.50
2023-02-19T09:58:30.046Z,10.63
2023-02-19T10:03:33.349Z,10.18
2023-02-19T10:08:26.735Z,10.60
2023-02-19T10:13:25.448Z,10.30
2023-02-19T10:18:23.012Z,10.63
2023-02-19T10:23:18.504Z,9.20
2023-02-19T10:28:16.030Z,9.05
2023-02-19T10:33:12.580Z,9.85
2023-02-19T10:38:08.475Z,8.40
2023-02-19T10:43:05.371Z,9.20
2023-02-19T10:47:58.957Z,8.52
2023-02-19T10:52:54.670Z,8.20
2023-02-19T10:57:50.435Z,9.15
2023-02-19T11:02:46.064Z,8.40
2023-02-19T11:07:46.689Z,8.25
2023-02-19T11:12:42.085Z,7.32
2023-02-19T11:17:35.785Z,7.40
2023-02-19T11:22:33.759Z,7.05
2023-02-19T11:27:27.255Z,7.53
2023-02-19T11:32:31.824Z,7.32
2023-02-19T11:37:25.501Z,8.20
2023-02-19T11:42:42.945Z,6.80
2023-02-19T11:47:56.937Z,6.88
2023-02-19T11:53:02.448Z,6.60
2023-02-19T11:58:14.445Z,7.70
2023-02-19T12:03:46.941Z,6.70
2023-02-19T12:09:14.153Z,7.40
2023-02-19T12:14:42.513Z,6.63
2023-02-19T12:19:53.499Z,6.15
2023-02-19T12:25:04.903Z,7.40
2023-02-19T12:30:18.148Z,5.72
2023-02-19T12:35:41.635Z,6.28
2023-02-19T12:40:49.393Z,5.68
2023-02-19T12:45:48.376Z,6.47
2023-02-19T12:50:43.126Z,4.95
2023-02-19T12:55:42.092Z,4.43
2023-02-19T13:00:40.713Z,6.40
2023-02-19T13:05:45.554Z,4.72
2023-02-19T13:10:43.462Z,5.05
2023-02-19T13:15:41.838Z,4.70
2023-02-19T13:20:41.641Z,4.05
2023-02-19T13:25:47.371Z,4.22
2023-02-19T13:30:55.699Z,4.57
2023-02-19T13:36:13.049Z,4.60
2023-02-19T13:41:18.847Z,4.28
2023-02-19T13:46:17.002Z,3.47
2023-02-19T13:51:49.304Z,3.58
2023-02-19T13:56:45.297Z,2.80
2023-02-19T14:02:12.677Z,3.05
2023-02-19T14:07:34.949Z,4.78
2023-02-19T14:12:34.065Z,4.28
2023-02-19T14:17:29.727Z,4.97
2023-02-19T14:23:01.833Z,18.27
2023-02-19T14:27:56.997Z,10.48
2023-02-19T14:33:02.775Z,6.70
2023-02-19T14:38:05.421Z,10.48
2023-02-19T14:43:01.200Z,7.20
2023-02-19T14:47:57.615Z,4.68
2023-02-19T14:52:55.322Z,8.57
2023-02-19T14:57:53.669Z,8.88
2023-02-19T15:02:46.937Z,6.30
2023-02-19T15:07:45.278Z,5.93
2023-02-19T15:12:45.999Z,4.82
2023-02-19T15:17:42.349Z,13.60
2023-02-19T15:22:35.849Z,6.95
2023-02-19T15:27:29.160Z,4.95
2023-02-19T15:32:26.553Z,3.63
2023-02-19T15:37:21.871Z,4.32
2023-02-19T15:42:19.788Z,5.32
2023-02-19T15:47:22.104Z,4.63
2023-02-19T15:52:26.847Z,3.88
2023-02-19T15:57:25.686Z,4.28
2023-02-19T16:02:22.121Z,5.40
2023-02-19T16:07:28.693Z,3.95
2023-02-19T16:12:24.993Z,4.57
2023-02-19T16:17:23.266Z,10.95
2023-02-19T16:22:21.112Z,13.35
2023-02-19T16:27:31.596Z,10.68
2023-02-19T16:32:25.263Z,6.65
2023-02-19T16:37:35.791Z,5.40
2023-02-19T16:42:30.571Z,4.97
2023-02-19T16:47:35.118Z,4.72
2023-02-19T16:52:28.803Z,7.18
2023-02-19T16:57:23.086Z,5.65
2023-02-19T17:02:22.343Z,4.82
2023-02-19T17:07:20.081Z,5.63
2023-02-19T17:12:19.308Z,8.00
2023-02-19T17:17:12.684Z,7.20
2023-02-19T17:22:08.216Z,8.48
2023-02-19T17:27:01.668Z,7.45
2023-02-19T17:31:55.051Z,8.27
2023-02-19T17:36:49.894Z,7.90
2023-02-19T17:41:48.525Z,16.27
2023-02-19T17:46:42.816Z,8.73
2023-02-19T17:51:36.292Z,9.23
2023-02-19T17:56:32.626Z,11.02
2023-02-19T18:01:27.522Z,11.25
2023-02-19T18:06:21.442Z,10.82
2023-02-19T18:11:15.064Z,8.88
2023-02-19T18:16:09.993Z,10.15
2023-02-19T18:21:09.912Z,7.03
2023-02-19T18:26:03.657Z,6.93
2023-02-19T18:30:57.039Z,8.88
2023-02-19T18:35:50.822Z,8.00
2023-02-19T18:40:49.294Z,8.43
2023-02-19T18:45:47.555Z,8.35
2023-02-19T18:50:48.033Z,8.82
2023-02-19T18:55:42.856Z,7.15
2023-02-19T19:00:40.348Z,11.43
2023-02-19T19:05:45.698Z,9.70
2023-02-19T19:10:44.739Z,11.15
2023-02-19T19:15:42.557Z,12.57
2023-02-19T19:20:37.773Z,8.88
2023-02-19T19:25:33.401Z,9.70
2023-02-19T19:30:29.232Z,8.77
2023-02-19T19:35:33.124Z,7.95
2023-02-19T19:40:32.692Z,7.22
2023-02-19T19:45:26.237Z,7.35
2023-02-19T19:50:29.127Z,8.30
2023-02-19T19:55:24.973Z,8.40
2023-02-19T20:00:20.300Z,8.20
2023-02-19T20:05:25.478Z,8.68
2023-02-19T20:10:23.053Z,7.78
2023-02-19T20:15:22.989Z,8.80
2023-02-19T20:20:18.616Z,8.85
2023-02-19T20:25:14.418Z,8.40
2023-02-19T20:30:14.099Z,8.77
2023-02-19T20:35:28.909Z,10.35
2023-02-19T20:40:48.758Z,9.52
2023-02-19T20:46:04.330Z,9.43
2023-02-19T20:51:31.893Z,10.10
2023-02-19T20:57:00.587Z,9.93
2023-02-19T21:02:00.212Z,10.07
2023-02-19T21:07:19.459Z,9.70
2023-02-19T21:12:56.669Z,11.27
2023-02-19T21:18:28.801Z,10.48
2023-02-19T21:24:07.634Z,10.60
2023-02-19T21:29:21.539Z,11.13
2023-02-19T21:35:00.152Z,11.55
2023-02-19T21:45:11.936Z,11.52
2023-02-19T21:50:11.524Z,12.05
2023-02-19T21:55:05.798Z,11.88
2023-02-19T21:59:59.386Z,12.75
2023-02-19T22:04:54.791Z,12.13
2023-02-19T22:09:52.680Z,11.80
2023-02-19T22:14:55.166Z,10.50
2023-02-19T22:19:50.923Z,11.10
2023-02-19T22:24:45.295Z,11.23
2023-02-19T22:29:41.278Z,10.82
2023-02-19T22:34:37.703Z,11.88
2023-02-19T22:39:33.847Z,12.10
2023-02-19T22:44:27.534Z,12.38
2023-02-19T22:49:25.339Z,14.27
2023-02-19T22:54:26.947Z,14.13
2023-02-19T22:59:52.952Z,13.20
2023-02-19T23:04:47.900Z,11.48
2023-02-19T23:09:44.423Z,11.35
2023-02-19T23:14:38.554Z,18.30
2023-02-19T23:19:35.425Z,12.65
2023-02-19T23:24:30.923Z,12.13
2023-02-19T23:29:26.577Z,13.38
2023-02-19T23:34:20.713Z,12.73
2023-02-19T23:39:16.374Z,12.98
2023-02-19T23:44:16.180Z,11.65
2023-02-19T23:49:09.503Z,11.43
2023-02-19T23:54:11.846Z,11.25
2023-02-19T23:59:07.578Z,11.77
